sensor_id;sensor_type;location;lat;lon;timestamp;temperature;humidity
21918;DHT22;11123;49.882;8.662;2022-11-12T00:01:27;7.00;99.90
21918;DHT22;11123;49.882;8.662;2022-11-12T00:04:14;7.00;99.90
21918;DHT22;11123;49.882;8.662;2022-11-12T00:07:02;7.00;99.90
21918;DHT22;11123;49.882;8.662;2022-11-12T00:09:49;7.00;99.90
21918;DHT22;11123;49.882;8.662;2022-11-12T00:12:36;7.00;99.90
21918;DHT22;11123;49.882;8.662;2022-11-12T00:15:23;7.10;99.90
21918;DHT22;11123;49.882;8.662;2022-11-12T00:18:11;7.10;99.90
21918;DHT22;11123;49.882;8.662;2022-11-12T00:20:58;7.10;99.90
21918;DHT22;11123;49.882;8.662;2022-11-12T00:23:46;7.00;99.90
21918;DHT22;11123;49.882;8.662;2022-11-12T00:26:33;7.00;99.90
21918;DHT22;11123;49.882;8.662;2022-11-12T00:29:20;6.90;99.90
21918;DHT22;11123;49.882;8.662;2022-11-12T00:32:08;6.80;99.90
21918;DHT22;11123;49.882;8.662;2022-11-12T00:34:55;6.90;99.90
21918;DHT22;11123;49.882;8.662;2022-11-12T00:37:51;6.90;99.90
21918;DHT22;11123;49.882;8.662;2022-11-12T00:40:39;6.90;99.90
21918;DHT22;11123;49.882;8.662;2022-11-12T00:43:27;6.90;99.90
21918;DHT22;11123;49.882;8.662;2022-11-12T00:46:14;7.00;99.90
21918;DHT22;11123;49.882;8.662;2022-11-12T00:49:01;7.00;99.90
21918;DHT22;11123;49.882;8.662;2022-11-12T00:51:47;7.00;99.90
21918;DHT22;11123;49.882;8.662;2022-11-12T00:54:34;7.00;99.90
21918;DHT22;11123;49.882;8.662;2022-11-12T00:57:23;6.90;99.90
21918;DHT22;11123;49.882;8.662;2022-11-12T01:00:15;6.80;99.90
21918;DHT22;11123;49.882;8.662;2022-11-12T01:03:02;6.80;99.90
21918;DHT22;11123;49.882;8.662;2022-11-12T01:05:49;6.90;99.90
21918;DHT22;11123;49.882;8.662;2022-11-12T01:08:37;6.80;99.90
21918;DHT22;11123;49.882;8.662;2022-11-12T01:11:25;6.80;99.90
21918;DHT22;11123;49.882;8.662;2022-11-12T01:14:14;6.70;99.90
21918;DHT22;11123;49.882;8.662;2022-11-12T01:17:00;6.80;99.90
21918;DHT22;11123;49.882;8.662;2022-11-12T01:19:48;6.80;99.90
21918;DHT22;11123;49.882;8.662;2022-11-12T01:22:35;6.80;99.90
21918;DHT22;11123;49.882;8.662;2022-11-12T01:25:22;6.70;99.90
21918;DHT22;11123;49.882;8.662;2022-11-12T01:28:09;6.60;99.90
21918;DHT22;11123;49.882;8.662;2022-11-12T01:30:57;6.60;99.90
21918;DHT22;11123;49.882;8.662;2022-11-12T01:33:47;6.60;99.90
21918;DHT22;11123;49.882;8.662;2022-11-12T01:36:36;6.60;99.90
21918;DHT22;11123;49.882;8.662;2022-11-12T01:39:23;6.60;99.90
21918;DHT22;11123;49.882;8.662;2022-11-12T01:42:11;6.60;99.90
21918;DHT22;11123;49.882;8.662;2022-11-12T01:44:58;6.60;99.90
21918;DHT22;11123;49.882;8.662;2022-11-12T01:47:48;6.60;99.90
21918;DHT22;11123;49.882;8.662;2022-11-12T01:50:37;6.50;99.90
21918;DHT22;11123;49.882;8.662;2022-11-12T01:53:26;6.60;99.90
21918;DHT22;11123;49.882;8.662;2022-11-12T01:56:15;6.60;99.90
21918;DHT22;11123;49.882;8.662;2022-11-12T01:59:05;6.50;99.90
21918;DHT22;11123;49.882;8.662;2022-11-12T02:01:53;6.50;99.90
21918;DHT22;11123;49.882;8.662;2022-11-12T02:04:42;6.40;99.90
21918;DHT22;11123;49.882;8.662;2022-11-12T02:07:30;6.40;99.90
21918;DHT22;11123;49.882;8.662;2022-11-12T02:10:18;6.40;99.90
21918;DHT22;11123;49.882;8.662;2022-11-12T02:13:06;6.40;99.90
21918;DHT22;11123;49.882;8.662;2022-11-12T02:16:11;6.40;99.90
21918;DHT22;11123;49.882;8.662;2022-11-12T02:18:58;6.40;99.90
21918;DHT22;11123;49.882;8.662;2022-11-12T02:21:46;6.40;99.90
21918;DHT22;11123;49.882;8.662;2022-11-12T02:24:34;6.30;99.90
21918;DHT22;11123;49.882;8.662;2022-11-12T02:27:23;6.30;99.90
21918;DHT22;11123;49.882;8.662;2022-11-12T02:30:10;6.20;99.90
21918;DHT22;11123;49.882;8.662;2022-11-12T02:32:58;6.20;99.90
21918;DHT22;11123;49.882;8.662;2022-11-12T02:35:45;6.10;99.90
21918;DHT22;11123;49.882;8.662;2022-11-12T02:38:33;6.20;99.90
21918;DHT22;11123;49.882;8.662;2022-11-12T02:41:20;6.20;99.90
21918;DHT22;11123;49.882;8.662;2022-11-12T02:44:07;6.20;99.90
21918;DHT22;11123;49.882;8.662;2022-11-12T02:46:54;6.20;99.90
21918;DHT22;11123;49.882;8.662;2022-11-12T02:49:41;6.20;99.90
21918;DHT22;11123;49.882;8.662;2022-11-12T02:52:29;6.20;99.90
21918;DHT22;11123;49.882;8.662;2022-11-12T02:55:18;6.10;99.90
21918;DHT22;11123;49.882;8.662;2022-11-12T02:58:04;6.10;99.90
21918;DHT22;11123;49.882;8.662;2022-11-12T03:00:51;6.20;99.90
21918;DHT22;11123;49.882;8.662;2022-11-12T03:03:39;6.10;99.90
21918;DHT22;11123;49.882;8.662;2022-11-12T03:06:25;6.10;99.90
21918;DHT22;11123;49.882;8.662;2022-11-12T03:09:12;6.20;99.90
21918;DHT22;11123;49.882;8.662;2022-11-12T03:12:01;6.20;99.90
21918;DHT22;11123;49.882;8.662;2022-11-12T03:14:48;6.20;99.90
21918;DHT22;11123;49.882;8.662;2022-11-12T03:17:35;6.20;99.90
21918;DHT22;11123;49.882;8.662;2022-11-12T03:20:22;6.20;99.90
21918;DHT22;11123;49.882;8.662;2022-11-12T03:23:10;6.30;99.90
21918;DHT22;11123;49.882;8.662;2022-11-12T03:25:57;6.20;99.90
21918;DHT22;11123;49.882;8.662;2022-11-12T03:28:45;6.20;99.90
21918;DHT22;11123;49.882;8.662;2022-11-12T03:31:32;6.20;99.90
21918;DHT22;11123;49.882;8.662;2022-11-12T03:34:19;6.20;99.90
21918;DHT22;11123;49.882;8.662;2022-11-12T03:37:06;6.20;99.90
21918;DHT22;11123;49.882;8.662;2022-11-12T03:39:54;6.20;99.90
21918;DHT22;11123;49.882;8.662;2022-11-12T03:42:45;6.20;99.90
21918;DHT22;11123;49.882;8.662;2022-11-12T03:45:33;6.20;99.90
21918;DHT22;11123;49.882;8.662;2022-11-12T03:48:20;6.20;99.90
21918;DHT22;11123;49.882;8.662;2022-11-12T03:51:07;6.20;99.90
21918;DHT22;11123;49.882;8.662;2022-11-12T03:53:54;6.20;99.90
21918;DHT22;11123;49.882;8.662;2022-11-12T03:56:42;6.20;99.90
21918;DHT22;11123;49.882;8.662;2022-11-12T03:59:29;6.20;99.90
21918;DHT22;11123;49.882;8.662;2022-11-12T04:02:17;6.20;99.90
21918;DHT22;11123;49.882;8.662;2022-11-12T04:05:05;6.20;99.90
21918;DHT22;11123;49.882;8.662;2022-11-12T04:08:13;6.30;99.90
21918;DHT22;11123;49.882;8.662;2022-11-12T04:11:18;6.30;99.90
21918;DHT22;11123;49.882;8.662;2022-11-12T04:14:05;6.30;99.90
21918;DHT22;11123;49.882;8.662;2022-11-12T04:16:52;6.20;99.90
21918;DHT22;11123;49.882;8.662;2022-11-12T04:20:00;6.10;99.90
21918;DHT22;11123;49.882;8.662;2022-11-12T04:23:04;6.00;99.90
21918;DHT22;11123;49.882;8.662;2022-11-12T04:25:51;6.00;99.90
21918;DHT22;11123;49.882;8.662;2022-11-12T04:28:55;6.00;99.90
21918;DHT22;11123;49.882;8.662;2022-11-12T04:32:00;6.00;99.90
21918;DHT22;11123;49.882;8.662;2022-11-12T04:34:47;5.90;99.90
21918;DHT22;11123;49.882;8.662;2022-11-12T04:37:35;6.00;99.90
21918;DHT22;11123;49.882;8.662;2022-11-12T04:40:31;6.00;99.90
21918;DHT22;11123;49.882;8.662;2022-11-12T04:43:36;6.00;99.90
21918;DHT22;11123;49.882;8.662;2022-11-12T04:46:40;5.90;99.90
21918;DHT22;11123;49.882;8.662;2022-11-12T04:49:27;5.80;99.90
21918;DHT22;11123;49.882;8.662;2022-11-12T04:52:14;5.80;99.90
21918;DHT22;11123;49.882;8.662;2022-11-12T04:55:03;5.90;99.90
21918;DHT22;11123;49.882;8.662;2022-11-12T04:57:50;5.90;99.90
21918;DHT22;11123;49.882;8.662;2022-11-12T05:00:45;5.80;99.90
21918;DHT22;11123;49.882;8.662;2022-11-12T05:03:31;5.80;99.90
21918;DHT22;11123;49.882;8.662;2022-11-12T05:06:18;5.80;99.90
21918;DHT22;11123;49.882;8.662;2022-11-12T05:09:25;5.80;99.90
21918;DHT22;11123;49.882;8.662;2022-11-12T05:12:13;5.80;99.90
21918;DHT22;11123;49.882;8.662;2022-11-12T05:15:00;5.70;99.90
21918;DHT22;11123;49.882;8.662;2022-11-12T05:17:47;5.70;99.90
21918;DHT22;11123;49.882;8.662;2022-11-12T05:20:34;5.70;99.90
21918;DHT22;11123;49.882;8.662;2022-11-12T05:23:21;5.70;99.90
21918;DHT22;11123;49.882;8.662;2022-11-12T05:26:08;5.70;99.90
21918;DHT22;11123;49.882;8.662;2022-11-12T05:28:56;5.70;99.90
21918;DHT22;11123;49.882;8.662;2022-11-12T05:31:43;5.70;99.90
21918;DHT22;11123;49.882;8.662;2022-11-12T05:34:31;5.80;99.90
21918;DHT22;11123;49.882;8.662;2022-11-12T05:37:18;5.70;99.90
21918;DHT22;11123;49.882;8.662;2022-11-12T05:40:06;5.70;99.90
21918;DHT22;11123;49.882;8.662;2022-11-12T05:42:53;5.70;99.90
21918;DHT22;11123;49.882;8.662;2022-11-12T05:45:43;5.70;99.90
21918;DHT22;11123;49.882;8.662;2022-11-12T05:48:29;5.70;99.90
21918;DHT22;11123;49.882;8.662;2022-11-12T05:51:16;5.70;99.90
21918;DHT22;11123;49.882;8.662;2022-11-12T05:54:06;5.70;99.90
21918;DHT22;11123;49.882;8.662;2022-11-12T05:56:53;5.70;99.90
21918;DHT22;11123;49.882;8.662;2022-11-12T05:59:39;5.70;99.90
21918;DHT22;11123;49.882;8.662;2022-11-12T06:02:27;5.70;99.90
21918;DHT22;11123;49.882;8.662;2022-11-12T06:05:14;5.70;99.90
21918;DHT22;11123;49.882;8.662;2022-11-12T06:08:02;5.70;99.90
21918;DHT22;11123;49.882;8.662;2022-11-12T06:10:50;5.70;99.90
21918;DHT22;11123;49.882;8.662;2022-11-12T06:13:37;5.70;99.90
21918;DHT22;11123;49.882;8.662;2022-11-12T06:16:24;5.80;99.90
21918;DHT22;11123;49.882;8.662;2022-11-12T06:19:12;5.70;99.90
21918;DHT22;11123;49.882;8.662;2022-11-12T06:22:00;5.70;99.90
21918;DHT22;11123;49.882;8.662;2022-11-12T06:24:46;5.80;99.90
21918;DHT22;11123;49.882;8.662;2022-11-12T06:27:33;5.80;99.90
21918;DHT22;11123;49.882;8.662;2022-11-12T06:30:20;5.80;99.90
21918;DHT22;11123;49.882;8.662;2022-11-12T06:33:10;5.80;99.90
21918;DHT22;11123;49.882;8.662;2022-11-12T06:35:59;5.80;99.90
21918;DHT22;11123;49.882;8.662;2022-11-12T06:38:47;5.80;99.90
21918;DHT22;11123;49.882;8.662;2022-11-12T06:41:34;5.70;99.90
21918;DHT22;11123;49.882;8.662;2022-11-12T06:44:21;5.70;99.90
21918;DHT22;11123;49.882;8.662;2022-11-12T06:47:08;5.70;99.90
21918;DHT22;11123;49.882;8.662;2022-11-12T06:49:55;5.60;99.90
21918;DHT22;11123;49.882;8.662;2022-11-12T06:52:43;5.70;99.90
21918;DHT22;11123;49.882;8.662;2022-11-12T06:55:31;5.70;99.90
21918;DHT22;11123;49.882;8.662;2022-11-12T06:58:17;5.70;99.90
21918;DHT22;11123;49.882;8.662;2022-11-12T07:01:06;5.70;99.90
21918;DHT22;11123;49.882;8.662;2022-11-12T07:03:57;5.70;99.90
21918;DHT22;11123;49.882;8.662;2022-11-12T07:06:43;5.70;99.90
21918;DHT22;11123;49.882;8.662;2022-11-12T07:09:32;5.70;99.90
21918;DHT22;11123;49.882;8.662;2022-11-12T07:12:18;5.70;99.90
21918;DHT22;11123;49.882;8.662;2022-11-12T07:15:06;5.70;99.90
21918;DHT22;11123;49.882;8.662;2022-11-12T07:17:52;5.70;99.90
21918;DHT22;11123;49.882;8.662;2022-11-12T07:20:39;5.80;99.90
21918;DHT22;11123;49.882;8.662;2022-11-12T07:23:26;5.80;99.90
21918;DHT22;11123;49.882;8.662;2022-11-12T07:26:16;5.80;99.90
21918;DHT22;11123;49.882;8.662;2022-11-12T07:29:04;5.80;99.90
21918;DHT22;11123;49.882;8.662;2022-11-12T07:31:51;5.90;99.90
21918;DHT22;11123;49.882;8.662;2022-11-12T07:34:38;6.00;99.90
21918;DHT22;11123;49.882;8.662;2022-11-12T07:37:24;6.00;99.90
21918;DHT22;11123;49.882;8.662;2022-11-12T07:40:11;6.10;99.90
21918;DHT22;11123;49.882;8.662;2022-11-12T07:42:59;6.10;99.90
21918;DHT22;11123;49.882;8.662;2022-11-12T07:45:46;6.10;99.90
21918;DHT22;11123;49.882;8.662;2022-11-12T07:48:33;6.20;99.90
21918;DHT22;11123;49.882;8.662;2022-11-12T07:51:23;6.00;99.90
21918;DHT22;11123;49.882;8.662;2022-11-12T07:54:10;6.00;99.90
21918;DHT22;11123;49.882;8.662;2022-11-12T07:56:57;6.00;99.90
21918;DHT22;11123;49.882;8.662;2022-11-12T07:59:46;5.90;99.90
21918;DHT22;11123;49.882;8.662;2022-11-12T08:02:32;6.00;99.90
21918;DHT22;11123;49.882;8.662;2022-11-12T08:05:19;6.00;99.90
21918;DHT22;11123;49.882;8.662;2022-11-12T08:08:06;6.10;99.90
21918;DHT22;11123;49.882;8.662;2022-11-12T08:10:54;6.10;99.90
21918;DHT22;11123;49.882;8.662;2022-11-12T08:13:41;6.20;99.90
21918;DHT22;11123;49.882;8.662;2022-11-12T08:16:29;6.20;99.90
21918;DHT22;11123;49.882;8.662;2022-11-12T08:19:16;6.20;99.90
21918;DHT22;11123;49.882;8.662;2022-11-12T08:22:03;6.30;99.90
21918;DHT22;11123;49.882;8.662;2022-11-12T08:24:50;6.30;99.90
21918;DHT22;11123;49.882;8.662;2022-11-12T08:27:36;6.40;99.90
21918;DHT22;11123;49.882;8.662;2022-11-12T08:30:23;6.40;99.90
21918;DHT22;11123;49.882;8.662;2022-11-12T08:33:12;6.40;99.90
21918;DHT22;11123;49.882;8.662;2022-11-12T08:36:01;6.40;99.90
21918;DHT22;11123;49.882;8.662;2022-11-12T08:38:51;6.50;99.90
21918;DHT22;11123;49.882;8.662;2022-11-12T08:41:37;6.50;99.90
21918;DHT22;11123;49.882;8.662;2022-11-12T08:44:24;6.50;99.90
21918;DHT22;11123;49.882;8.662;2022-11-12T08:47:11;6.50;99.90
21918;DHT22;11123;49.882;8.662;2022-11-12T08:50:00;6.60;99.90
21918;DHT22;11123;49.882;8.662;2022-11-12T08:52:46;6.60;99.90
21918;DHT22;11123;49.882;8.662;2022-11-12T08:55:34;6.60;99.90
21918;DHT22;11123;49.882;8.662;2022-11-12T08:58:21;6.60;99.90
21918;DHT22;11123;49.882;8.662;2022-11-12T09:01:11;6.70;99.90
21918;DHT22;11123;49.882;8.662;2022-11-12T09:03:57;6.70;99.90
21918;DHT22;11123;49.882;8.662;2022-11-12T09:06:45;6.70;99.90
21918;DHT22;11123;49.882;8.662;2022-11-12T09:09:38;6.70;99.90
21918;DHT22;11123;49.882;8.662;2022-11-12T09:12:25;6.80;99.90
21918;DHT22;11123;49.882;8.662;2022-11-12T09:15:11;6.70;99.90
21918;DHT22;11123;49.882;8.662;2022-11-12T09:18:18;6.70;99.90
21918;DHT22;11123;49.882;8.662;2022-11-12T09:21:06;6.80;99.90
21918;DHT22;11123;49.882;8.662;2022-11-12T09:23:55;6.90;99.90
21918;DHT22;11123;49.882;8.662;2022-11-12T09:26:41;6.90;99.90
21918;DHT22;11123;49.882;8.662;2022-11-12T09:29:28;6.90;99.90
21918;DHT22;11123;49.882;8.662;2022-11-12T09:32:15;6.90;99.90
21918;DHT22;11123;49.882;8.662;2022-11-12T09:35:02;6.90;99.90
21918;DHT22;11123;49.882;8.662;2022-11-12T09:37:48;7.00;99.90
21918;DHT22;11123;49.882;8.662;2022-11-12T09:40:46;7.00;99.90
21918;DHT22;11123;49.882;8.662;2022-11-12T09:43:37;7.10;99.90
21918;DHT22;11123;49.882;8.662;2022-11-12T09:46:34;7.10;99.90
21918;DHT22;11123;49.882;8.662;2022-11-12T09:49:26;7.20;99.90
21918;DHT22;11123;49.882;8.662;2022-11-12T09:52:18;7.20;99.90
21918;DHT22;11123;49.882;8.662;2022-11-12T09:55:13;7.30;99.90
21918;DHT22;11123;49.882;8.662;2022-11-12T09:58:09;7.20;99.90
21918;DHT22;11123;49.882;8.662;2022-11-12T10:01:00;7.30;99.90
21918;DHT22;11123;49.882;8.662;2022-11-12T10:03:54;7.40;99.90
21918;DHT22;11123;49.882;8.662;2022-11-12T10:06:55;7.50;99.90
21918;DHT22;11123;49.882;8.662;2022-11-12T10:09:53;7.60;99.90
21918;DHT22;11123;49.882;8.662;2022-11-12T10:12:54;7.60;99.90
21918;DHT22;11123;49.882;8.662;2022-11-12T10:16:00;7.70;99.90
21918;DHT22;11123;49.882;8.662;2022-11-12T10:19:21;7.60;99.90
21918;DHT22;11123;49.882;8.662;2022-11-12T10:22:20;7.70;99.90
21918;DHT22;11123;49.882;8.662;2022-11-12T10:25:13;7.60;99.90
21918;DHT22;11123;49.882;8.662;2022-11-12T10:28:01;7.70;99.90
21918;DHT22;11123;49.882;8.662;2022-11-12T10:30:58;7.70;99.90
21918;DHT22;11123;49.882;8.662;2022-11-12T10:33:46;7.80;99.90
21918;DHT22;11123;49.882;8.662;2022-11-12T10:36:35;7.70;99.90
21918;DHT22;11123;49.882;8.662;2022-11-12T10:39:32;7.70;99.90
21918;DHT22;11123;49.882;8.662;2022-11-12T10:42:21;7.80;99.90
21918;DHT22;11123;49.882;8.662;2022-11-12T10:45:18;7.80;99.90
21918;DHT22;11123;49.882;8.662;2022-11-12T10:48:23;7.80;99.90
21918;DHT22;11123;49.882;8.662;2022-11-12T10:51:18;7.80;99.90
21918;DHT22;11123;49.882;8.662;2022-11-12T10:54:20;7.90;99.90
21918;DHT22;11123;49.882;8.662;2022-11-12T10:57:19;7.90;99.90
21918;DHT22;11123;49.882;8.662;2022-11-12T11:00:18;8.00;99.90
21918;DHT22;11123;49.882;8.662;2022-11-12T11:03:16;8.00;99.90
21918;DHT22;11123;49.882;8.662;2022-11-12T11:06:06;8.00;99.90
21918;DHT22;11123;49.882;8.662;2022-11-12T11:09:14;7.90;99.90
21918;DHT22;11123;49.882;8.662;2022-11-12T11:12:01;7.90;99.90
21918;DHT22;11123;49.882;8.662;2022-11-12T11:15:05;7.90;99.90
21918;DHT22;11123;49.882;8.662;2022-11-12T11:17:52;8.00;99.90
21918;DHT22;11123;49.882;8.662;2022-11-12T11:20:44;8.00;99.90
21918;DHT22;11123;49.882;8.662;2022-11-12T11:23:36;8.10;99.90
21918;DHT22;11123;49.882;8.662;2022-11-12T11:26:35;8.30;99.90
21918;DHT22;11123;49.882;8.662;2022-11-12T11:29:58;8.30;99.90
21918;DHT22;11123;49.882;8.662;2022-11-12T11:33:14;8.30;99.90
21918;DHT22;11123;49.882;8.662;2022-11-12T11:36:15;8.20;99.90
21918;DHT22;11123;49.882;8.662;2022-11-12T11:39:15;8.30;99.90
21918;DHT22;11123;49.882;8.662;2022-11-12T11:42:15;8.50;99.90
21918;DHT22;11123;49.882;8.662;2022-11-12T11:45:15;8.60;99.90
21918;DHT22;11123;49.882;8.662;2022-11-12T11:48:07;8.80;99.90
21918;DHT22;11123;49.882;8.662;2022-11-12T11:51:00;8.90;99.90
21918;DHT22;11123;49.882;8.662;2022-11-12T11:53:55;8.90;99.90
21918;DHT22;11123;49.882;8.662;2022-11-12T11:56:48;8.90;99.90
21918;DHT22;11123;49.882;8.662;2022-11-12T11:59:46;8.80;99.90
21918;DHT22;11123;49.882;8.662;2022-11-12T12:02:55;8.90;99.90
21918;DHT22;11123;49.882;8.662;2022-11-12T12:06:07;9.00;99.90
21918;DHT22;11123;49.882;8.662;2022-11-12T12:09:21;9.10;99.90
21918;DHT22;11123;49.882;8.662;2022-11-12T12:12:18;9.20;99.90
21918;DHT22;11123;49.882;8.662;2022-11-12T12:15:34;9.20;99.90
21918;DHT22;11123;49.882;8.662;2022-11-12T12:18:32;9.30;99.90
21918;DHT22;11123;49.882;8.662;2022-11-12T12:21:22;9.50;99.90
21918;DHT22;11123;49.882;8.662;2022-11-12T12:24:16;9.40;99.90
21918;DHT22;11123;49.882;8.662;2022-11-12T12:27:10;9.50;99.90
21918;DHT22;11123;49.882;8.662;2022-11-12T12:30:02;9.60;99.90
21918;DHT22;11123;49.882;8.662;2022-11-12T12:32:53;9.60;99.90
21918;DHT22;11123;49.882;8.662;2022-11-12T12:35:49;9.60;99.90
21918;DHT22;11123;49.882;8.662;2022-11-12T12:38:42;9.70;99.90
21918;DHT22;11123;49.882;8.662;2022-11-12T12:41:40;9.70;99.90
21918;DHT22;11123;49.882;8.662;2022-11-12T12:44:37;9.80;99.90
21918;DHT22;11123;49.882;8.662;2022-11-12T12:47:45;9.80;99.90
21918;DHT22;11123;49.882;8.662;2022-11-12T12:50:36;9.80;99.90
21918;DHT22;11123;49.882;8.662;2022-11-12T12:53:32;9.70;99.90
21918;DHT22;11123;49.882;8.662;2022-11-12T12:56:47;9.70;99.90
21918;DHT22;11123;49.882;8.662;2022-11-12T12:59:34;9.70;99.90
21918;DHT22;11123;49.882;8.662;2022-11-12T13:02:22;9.70;99.90
21918;DHT22;11123;49.882;8.662;2022-11-12T13:05:26;9.60;99.90
21918;DHT22;11123;49.882;8.662;2022-11-12T13:08:22;9.60;99.90
21918;DHT22;11123;49.882;8.662;2022-11-12T13:11:48;9.60;99.90
21918;DHT22;11123;49.882;8.662;2022-11-12T13:15:09;9.60;99.90
21918;DHT22;11123;49.882;8.662;2022-11-12T13:17:57;9.70;99.90
21918;DHT22;11123;49.882;8.662;2022-11-12T13:21:07;9.60;99.90
21918;DHT22;11123;49.882;8.662;2022-11-12T13:23:57;9.60;99.90
21918;DHT22;11123;49.882;8.662;2022-11-12T13:26:56;9.80;99.90
21918;DHT22;11123;49.882;8.662;2022-11-12T13:29:45;9.80;99.90
21918;DHT22;11123;49.882;8.662;2022-11-12T13:32:35;9.90;99.90
21918;DHT22;11123;49.882;8.662;2022-11-12T13:35:31;9.80;99.90
21918;DHT22;11123;49.882;8.662;2022-11-12T13:38:19;9.80;99.90
21918;DHT22;11123;49.882;8.662;2022-11-12T13:41:13;9.70;99.90
21918;DHT22;11123;49.882;8.662;2022-11-12T13:44:06;9.70;99.90
21918;DHT22;11123;49.882;8.662;2022-11-12T13:46:55;9.70;99.90
21918;DHT22;11123;49.882;8.662;2022-11-12T13:49:43;9.70;99.90
21918;DHT22;11123;49.882;8.662;2022-11-12T13:52:33;9.70;99.90
21918;DHT22;11123;49.882;8.662;2022-11-12T13:55:21;9.60;99.90
21918;DHT22;11123;49.882;8.662;2022-11-12T13:58:17;9.70;99.90
21918;DHT22;11123;49.882;8.662;2022-11-12T14:01:06;9.70;99.90
21918;DHT22;11123;49.882;8.662;2022-11-12T14:03:53;9.70;99.90
21918;DHT22;11123;49.882;8.662;2022-11-12T14:06:42;9.60;99.90
21918;DHT22;11123;49.882;8.662;2022-11-12T14:09:47;9.60;99.90
21918;DHT22;11123;49.882;8.662;2022-11-12T14:13:01;9.60;99.90
21918;DHT22;11123;49.882;8.662;2022-11-12T14:16:00;9.50;99.90
21918;DHT22;11123;49.882;8.662;2022-11-12T14:22:22;9.40;99.90
21918;DHT22;11123;49.882;8.662;2022-11-12T14:25:15;9.30;99.90
21918;DHT22;11123;49.882;8.662;2022-11-12T14:28:03;9.30;99.90
21918;DHT22;11123;49.882;8.662;2022-11-12T14:30:50;9.30;99.90
21918;DHT22;11123;49.882;8.662;2022-11-12T14:33:37;9.30;99.90
21918;DHT22;11123;49.882;8.662;2022-11-12T14:36:25;9.30;99.90
21918;DHT22;11123;49.882;8.662;2022-11-12T14:39:12;9.30;99.90
21918;DHT22;11123;49.882;8.662;2022-11-12T14:41:59;9.30;99.90
21918;DHT22;11123;49.882;8.662;2022-11-12T14:44:46;9.30;99.90
21918;DHT22;11123;49.882;8.662;2022-11-12T14:47:33;9.20;99.90
21918;DHT22;11123;49.882;8.662;2022-11-12T14:50:24;9.20;99.90
21918;DHT22;11123;49.882;8.662;2022-11-12T14:53:18;9.20;99.90
21918;DHT22;11123;49.882;8.662;2022-11-12T14:56:18;9.10;99.90
21918;DHT22;11123;49.882;8.662;2022-11-12T14:59:09;9.10;99.90
21918;DHT22;11123;49.882;8.662;2022-11-12T15:02:06;9.00;99.90
21918;DHT22;11123;49.882;8.662;2022-11-12T15:05:16;9.00;99.90
21918;DHT22;11123;49.882;8.662;2022-11-12T15:08:05;9.00;99.90
21918;DHT22;11123;49.882;8.662;2022-11-12T15:11:12;9.00;99.90
21918;DHT22;11123;49.882;8.662;2022-11-12T15:14:12;9.00;99.90
21918;DHT22;11123;49.882;8.662;2022-11-12T15:17:17;9.00;99.90
21918;DHT22;11123;49.882;8.662;2022-11-12T15:20:13;8.90;99.90
21918;DHT22;11123;49.882;8.662;2022-11-12T15:23:00;8.80;99.90
21918;DHT22;11123;49.882;8.662;2022-11-12T15:25:58;8.80;99.90
21918;DHT22;11123;49.882;8.662;2022-11-12T15:28:57;8.80;99.90
21918;DHT22;11123;49.882;8.662;2022-11-12T15:31:46;8.70;99.90
21918;DHT22;11123;49.882;8.662;2022-11-12T15:34:43;8.70;99.90
21918;DHT22;11123;49.882;8.662;2022-11-12T15:37:39;8.60;99.90
21918;DHT22;11123;49.882;8.662;2022-11-12T15:40:27;8.60;99.90
21918;DHT22;11123;49.882;8.662;2022-11-12T15:43:20;8.60;99.90
21918;DHT22;11123;49.882;8.662;2022-11-12T15:46:11;8.60;99.90
21918;DHT22;11123;49.882;8.662;2022-11-12T15:48:59;8.50;99.90
21918;DHT22;11123;49.882;8.662;2022-11-12T15:51:47;8.50;99.90
21918;DHT22;11123;49.882;8.662;2022-11-12T15:54:34;8.50;99.90
21918;DHT22;11123;49.882;8.662;2022-11-12T15:57:28;8.40;99.90
21918;DHT22;11123;49.882;8.662;2022-11-12T16:00:19;8.40;99.90
21918;DHT22;11123;49.882;8.662;2022-11-12T16:03:12;8.40;99.90
21918;DHT22;11123;49.882;8.662;2022-11-12T16:05:59;8.40;99.90
21918;DHT22;11123;49.882;8.662;2022-11-12T16:08:53;8.30;99.90
21918;DHT22;11123;49.882;8.662;2022-11-12T16:11:40;8.30;99.90
21918;DHT22;11123;49.882;8.662;2022-11-12T16:14:27;8.30;99.90
21918;DHT22;11123;49.882;8.662;2022-11-12T16:17:16;8.30;99.90
21918;DHT22;11123;49.882;8.662;2022-11-12T16:20:10;8.20;99.90
21918;DHT22;11123;49.882;8.662;2022-11-12T16:22:57;8.20;99.90
21918;DHT22;11123;49.882;8.662;2022-11-12T16:25:44;8.30;99.90
21918;DHT22;11123;49.882;8.662;2022-11-12T16:28:32;8.20;99.90
21918;DHT22;11123;49.882;8.662;2022-11-12T16:31:19;8.20;99.90
21918;DHT22;11123;49.882;8.662;2022-11-12T16:34:07;8.20;99.90
21918;DHT22;11123;49.882;8.662;2022-11-12T16:36:55;8.20;99.90
21918;DHT22;11123;49.882;8.662;2022-11-12T16:39:42;8.20;99.90
21918;DHT22;11123;49.882;8.662;2022-11-12T16:42:29;8.10;99.90
21918;DHT22;11123;49.882;8.662;2022-11-12T16:45:18;8.10;99.90
21918;DHT22;11123;49.882;8.662;2022-11-12T16:48:10;8.10;99.90
21918;DHT22;11123;49.882;8.662;2022-11-12T16:50:59;8.10;99.90
21918;DHT22;11123;49.882;8.662;2022-11-12T16:53:46;8.00;99.90
21918;DHT22;11123;49.882;8.662;2022-11-12T16:56:33;8.00;99.90
21918;DHT22;11123;49.882;8.662;2022-11-12T16:59:20;7.90;99.90
21918;DHT22;11123;49.882;8.662;2022-11-12T17:02:10;8.00;99.90
21918;DHT22;11123;49.882;8.662;2022-11-12T17:05:00;8.00;99.90
21918;DHT22;11123;49.882;8.662;2022-11-12T17:07:52;8.00;99.90
21918;DHT22;11123;49.882;8.662;2022-11-12T17:10:40;8.10;99.90
21918;DHT22;11123;49.882;8.662;2022-11-12T17:13:27;8.00;99.90
21918;DHT22;11123;49.882;8.662;2022-11-12T17:16:14;7.90;99.90
21918;DHT22;11123;49.882;8.662;2022-11-12T17:19:01;7.90;99.90
21918;DHT22;11123;49.882;8.662;2022-11-12T17:21:49;7.80;99.90
21918;DHT22;11123;49.882;8.662;2022-11-12T17:24:37;7.80;99.90
21918;DHT22;11123;49.882;8.662;2022-11-12T17:27:24;7.80;99.90
21918;DHT22;11123;49.882;8.662;2022-11-12T17:30:12;7.80;99.90
21918;DHT22;11123;49.882;8.662;2022-11-12T17:32:59;7.80;99.90
21918;DHT22;11123;49.882;8.662;2022-11-12T17:35:45;7.70;99.90
21918;DHT22;11123;49.882;8.662;2022-11-12T17:38:32;7.80;99.90
21918;DHT22;11123;49.882;8.662;2022-11-12T17:41:20;7.70;99.90
21918;DHT22;11123;49.882;8.662;2022-11-12T17:44:10;7.70;99.90
21918;DHT22;11123;49.882;8.662;2022-11-12T17:46:58;7.60;99.90
21918;DHT22;11123;49.882;8.662;2022-11-12T17:49:46;7.70;99.90
21918;DHT22;11123;49.882;8.662;2022-11-12T17:52:33;7.70;99.90
21918;DHT22;11123;49.882;8.662;2022-11-12T17:55:20;7.80;99.90
21918;DHT22;11123;49.882;8.662;2022-11-12T17:58:08;7.70;99.90
21918;DHT22;11123;49.882;8.662;2022-11-12T18:00:55;7.60;99.90
21918;DHT22;11123;49.882;8.662;2022-11-12T18:03:44;7.60;99.90
21918;DHT22;11123;49.882;8.662;2022-11-12T18:06:32;7.60;99.90
21918;DHT22;11123;49.882;8.662;2022-11-12T18:09:19;7.60;99.90
21918;DHT22;11123;49.882;8.662;2022-11-12T18:12:06;7.60;99.90
21918;DHT22;11123;49.882;8.662;2022-11-12T18:14:54;7.50;99.90
21918;DHT22;11123;49.882;8.662;2022-11-12T18:17:41;7.50;99.90
21918;DHT22;11123;49.882;8.662;2022-11-12T18:20:28;7.40;99.90